sensor_id;sensor_type;location;lat;lon;timestamp;P1;durP1;ratioP1;P2;durP2;ratioP2
33844;SDS011;20145;43.118;25.694;2023-07-29T00:01:11;2.58;;;2.30;;
33844;SDS011;20145;43.118;25.694;2023-07-29T00:03:37;2.38;;;2.13;;
33844;SDS011;20145;43.118;25.694;2023-07-29T00:06:03;2.60;;;2.05;;
33844;SDS011;20145;43.118;25.694;2023-07-29T00:08:29;2.42;;;2.20;;
33844;SDS011;20145;43.118;25.694;2023-07-29T00:10:54;3.40;;;2.50;;
33844;SDS011;20145;43.118;25.694;2023-07-29T00:13:20;2.05;;;1.88;;
33844;SDS011;20145;43.118;25.694;2023-07-29T00:15:45;3.78;;;2.20;;
33844;SDS011;20145;43.118;25.694;2023-07-29T00:18:11;2.25;;;1.80;;
33844;SDS011;20145;43.118;25.694;2023-07-29T00:20:36;2.60;;;2.05;;
33844;SDS011;20145;43.118;25.694;2023-07-29T00:23:02;2.70;;;2.17;;
33844;SDS011;20145;43.118;25.694;2023-07-29T00:25:28;3.15;;;2.58;;
33844;SDS011;20145;43.118;25.694;2023-07-29T00:27:56;2.20;;;2.00;;
33844;SDS011;20145;43.118;25.694;2023-07-29T00:30:22;3.88;;;2.63;;
33844;SDS011;20145;43.118;25.694;2023-07-29T00:32:47;3.05;;;2.20;;
33844;SDS011;20145;43.118;25.694;2023-07-29T00:35:13;4.07;;;2.20;;
33844;SDS011;20145;43.118;25.694;2023-07-29T00:37:38;2.35;;;2.15;;
33844;SDS011;20145;43.118;25.694;2023-07-29T00:40:09;2.10;;;1.90;;
33844;SDS011;20145;43.118;25.694;2023-07-29T00:42:40;3.35;;;2.40;;
33844;SDS011;20145;43.118;25.694;2023-07-29T00:45:08;4.43;;;2.30;;
33844;SDS011;20145;43.118;25.694;2023-07-29T00:47:34;2.42;;;2.22;;
33844;SDS011;20145;43.118;25.694;2023-07-29T00:49:59;2.65;;;2.00;;
33844;SDS011;20145;43.118;25.694;2023-07-29T00:52:25;2.63;;;2.30;;
33844;SDS011;20145;43.118;25.694;2023-07-29T00:54:51;2.33;;;2.13;;
33844;SDS011;20145;43.118;25.694;2023-07-29T00:57:16;2.63;;;2.42;;
33844;SDS011;20145;43.118;25.694;2023-07-29T00:59:44;3.95;;;2.42;;
33844;SDS011;20145;43.118;25.694;2023-07-29T01:02:09;3.45;;;2.95;;
33844;SDS011;20145;43.118;25.694;2023-07-29T01:04:35;2.55;;;2.35;;
33844;SDS011;20145;43.118;25.694;2023-07-29T01:07:12;4.78;;;2.33;;
33844;SDS011;20145;43.118;25.694;2023-07-29T01:09:51;4.38;;;2.70;;
33844;SDS011;20145;43.118;25.694;2023-07-29T01:12:48;4.43;;;2.47;;
33844;SDS011;20145;43.118;25.694;2023-07-29T01:18:24;3.92;;;2.42;;
33844;SDS011;20145;43.118;25.694;2023-07-29T01:20:54;2.90;;;2.60;;
33844;SDS011;20145;43.118;25.694;2023-07-29T01:23:24;2.35;;;2.10;;
33844;SDS011;20145;43.118;25.694;2023-07-29T01:25:50;3.75;;;2.50;;
33844;SDS011;20145;43.118;25.694;2023-07-29T01:28:15;3.53;;;2.28;;
33844;SDS011;20145;43.118;25.694;2023-07-29T01:30:41;2.60;;;2.40;;
33844;SDS011;20145;43.118;25.694;2023-07-29T01:38:19;3.55;;;2.10;;
33844;SDS011;20145;43.118;25.694;2023-07-29T01:40:48;4.85;;;2.95;;
33844;SDS011;20145;43.118;25.694;2023-07-29T01:43:16;3.88;;;2.65;;
33844;SDS011;20145;43.118;25.694;2023-07-29T01:45:44;2.80;;;2.40;;
33844;SDS011;20145;43.118;25.694;2023-07-29T01:48:10;3.92;;;2.38;;
33844;SDS011;20145;43.118;25.694;2023-07-29T01:50:35;3.47;;;2.25;;
33844;SDS011;20145;43.118;25.694;2023-07-29T01:53:01;3.33;;;2.35;;
33844;SDS011;20145;43.118;25.694;2023-07-29T01:55:26;2.65;;;2.33;;
33844;SDS011;20145;43.118;25.694;2023-07-29T01:57:52;4.07;;;2.50;;
33844;SDS011;20145;43.118;25.694;2023-07-29T02:00:18;2.45;;;2.25;;
33844;SDS011;20145;43.118;25.694;2023-07-29T02:02:44;2.45;;;2.25;;
33844;SDS011;20145;43.118;25.694;2023-07-29T02:05:10;2.55;;;2.13;;
33844;SDS011;20145;43.118;25.694;2023-07-29T02:07:35;3.25;;;2.40;;
33844;SDS011;20145;43.118;25.694;2023-07-29T02:10:01;2.60;;;2.20;;
33844;SDS011;20145;43.118;25.694;2023-07-29T02:12:26;2.30;;;2.10;;
33844;SDS011;20145;43.118;25.694;2023-07-29T02:14:52;4.25;;;2.50;;
33844;SDS011;20145;43.118;25.694;2023-07-29T02:17:17;3.38;;;2.38;;
33844;SDS011;20145;43.118;25.694;2023-07-29T02:19:43;2.50;;;2.30;;
33844;SDS011;20145;43.118;25.694;2023-07-29T02:22:10;2.88;;;2.58;;
33844;SDS011;20145;43.118;25.694;2023-07-29T02:24:38;3.35;;;2.20;;
33844;SDS011;20145;43.118;25.694;2023-07-29T02:27:03;2.20;;;2.00;;
33844;SDS011;20145;43.118;25.694;2023-07-29T02:29:29;3.35;;;2.40;;
33844;SDS011;20145;43.118;25.694;2023-07-29T02:31:55;2.72;;;2.47;;
33844;SDS011;20145;43.118;25.694;2023-07-29T02:34:21;2.55;;;2.35;;
33844;SDS011;20145;43.118;25.694;2023-07-29T02:36:46;2.85;;;2.42;;
33844;SDS011;20145;43.118;25.694;2023-07-29T02:39:12;2.30;;;2.15;;
33844;SDS011;20145;43.118;25.694;2023-07-29T02:41:38;2.53;;;2.33;;
33844;SDS011;20145;43.118;25.694;2023-07-29T02:44:04;3.95;;;2.40;;
33844;SDS011;20145;43.118;25.694;2023-07-29T02:46:30;2.50;;;2.30;;
33844;SDS011;20145;43.118;25.694;2023-07-29T02:48:55;3.10;;;2.30;;
33844;SDS011;20145;43.118;25.694;2023-07-29T02:51:21;3.08;;;2.30;;
33844;SDS011;20145;43.118;25.694;2023-07-29T02:53:47;2.40;;;2.10;;
33844;SDS011;20145;43.118;25.694;2023-07-29T02:56:12;3.53;;;2.30;;
33844;SDS011;20145;43.118;25.694;2023-07-29T02:58:38;4.40;;;2.30;;
33844;SDS011;20145;43.118;25.694;2023-07-29T03:01:05;2.78;;;2.28;;
33844;SDS011;20145;43.118;25.694;2023-07-29T03:03:31;2.63;;;2.38;;
33844;SDS011;20145;43.118;25.694;2023-07-29T03:06:04;8.05;;;4.97;;
33844;SDS011;20145;43.118;25.694;2023-07-29T03:08:31;2.80;;;2.60;;
33844;SDS011;20145;43.118;25.694;2023-07-29T03:10:57;2.92;;;2.65;;
33844;SDS011;20145;43.118;25.694;2023-07-29T03:13:23;3.35;;;2.25;;
33844;SDS011;20145;43.118;25.694;2023-07-29T03:15:49;4.45;;;2.90;;
33844;SDS011;20145;43.118;25.694;2023-07-29T03:18:15;4.03;;;2.22;;
33844;SDS011;20145;43.118;25.694;2023-07-29T03:20:41;2.80;;;2.60;;
33844;SDS011;20145;43.118;25.694;2023-07-29T03:23:07;2.63;;;2.40;;
33844;SDS011;20145;43.118;25.694;2023-07-29T03:25:32;3.90;;;2.50;;
33844;SDS011;20145;43.118;25.694;2023-07-29T03:27:58;4.10;;;1.95;;
33844;SDS011;20145;43.118;25.694;2023-07-29T03:30:24;2.95;;;2.75;;
33844;SDS011;20145;43.118;25.694;2023-07-29T03:32:50;2.47;;;2.28;;
33844;SDS011;20145;43.118;25.694;2023-07-29T03:35:16;2.60;;;2.40;;
33844;SDS011;20145;43.118;25.694;2023-07-29T03:37:42;4.63;;;2.80;;
33844;SDS011;20145;43.118;25.694;2023-07-29T03:40:08;2.80;;;2.30;;
33844;SDS011;20145;43.118;25.694;2023-07-29T03:42:37;2.72;;;2.15;;
33844;SDS011;20145;43.118;25.694;2023-07-29T03:45:03;2.65;;;2.30;;
33844;SDS011;20145;43.118;25.694;2023-07-29T03:47:29;2.60;;;2.40;;
33844;SDS011;20145;43.118;25.694;2023-07-29T03:49:54;3.78;;;2.30;;
33844;SDS011;20145;43.118;25.694;2023-07-29T03:52:20;2.60;;;2.22;;
33844;SDS011;20145;43.118;25.694;2023-07-29T03:54:46;3.33;;;2.50;;
33844;SDS011;20145;43.118;25.694;2023-07-29T03:57:11;8.13;;;2.80;;
33844;SDS011;20145;43.118;25.694;2023-07-29T03:59:37;4.05;;;3.20;;
33844;SDS011;20145;43.118;25.694;2023-07-29T04:02:02;3.83;;;3.00;;
33844;SDS011;20145;43.118;25.694;2023-07-29T04:04:28;5.03;;;2.60;;
33844;SDS011;20145;43.118;25.694;2023-07-29T04:06:54;2.53;;;2.20;;
33844;SDS011;20145;43.118;25.694;2023-07-29T04:09:20;3.30;;;3.00;;
33844;SDS011;20145;43.118;25.694;2023-07-29T04:11:45;3.03;;;2.70;;
33844;SDS011;20145;43.118;25.694;2023-07-29T04:14:11;6.90;;;2.72;;
33844;SDS011;20145;43.118;25.694;2023-07-29T04:16:36;4.53;;;3.13;;
33844;SDS011;20145;43.118;25.694;2023-07-29T04:19:02;3.90;;;2.83;;
33844;SDS011;20145;43.118;25.694;2023-07-29T04:21:27;3.42;;;2.45;;
33844;SDS011;20145;43.118;25.694;2023-07-29T04:23:53;4.18;;;3.25;;
33844;SDS011;20145;43.118;25.694;2023-07-29T04:26:18;4.13;;;2.83;;
33844;SDS011;20145;43.118;25.694;2023-07-29T04:28:44;4.30;;;2.83;;
33844;SDS011;20145;43.118;25.694;2023-07-29T04:31:09;8.52;;;5.57;;
33844;SDS011;20145;43.118;25.694;2023-07-29T04:33:35;9.10;;;6.30;;
33844;SDS011;20145;43.118;25.694;2023-07-29T04:36:00;6.82;;;5.32;;
33844;SDS011;20145;43.118;25.694;2023-07-29T04:38:30;6.15;;;5.15;;
33844;SDS011;20145;43.118;25.694;2023-07-29T04:41:00;7.15;;;4.65;;
33844;SDS011;20145;43.118;25.694;2023-07-29T04:43:30;8.38;;;5.55;;
33844;SDS011;20145;43.118;25.694;2023-07-29T04:45:57;10.00;;;4.97;;
33844;SDS011;20145;43.118;25.694;2023-07-29T04:48:22;8.20;;;5.18;;
33844;SDS011;20145;43.118;25.694;2023-07-29T04:50:48;9.90;;;7.40;;
33844;SDS011;20145;43.118;25.694;2023-07-29T04:53:13;11.40;;;9.50;;
33844;SDS011;20145;43.118;25.694;2023-07-29T04:55:41;9.52;;;8.65;;
33844;SDS011;20145;43.118;25.694;2023-07-29T04:58:07;12.70;;;7.07;;
33844;SDS011;20145;43.118;25.694;2023-07-29T05:00:33;10.27;;;8.02;;
33844;SDS011;20145;43.118;25.694;2023-07-29T05:02:59;10.25;;;6.68;;
33844;SDS011;20145;43.118;25.694;2023-07-29T05:05:24;7.15;;;5.97;;
33844;SDS011;20145;43.118;25.694;2023-07-29T05:07:50;7.47;;;5.90;;
33844;SDS011;20145;43.118;25.694;2023-07-29T05:10:15;5.93;;;5.30;;
33844;SDS011;20145;43.118;25.694;2023-07-29T05:12:41;7.93;;;5.30;;
33844;SDS011;20145;43.118;25.694;2023-07-29T05:15:06;4.82;;;4.38;;
33844;SDS011;20145;43.118;25.694;2023-07-29T05:17:32;6.03;;;4.15;;
33844;SDS011;20145;43.118;25.694;2023-07-29T05:19:58;5.55;;;3.80;;
33844;SDS011;20145;43.118;25.694;2023-07-29T05:22:23;4.50;;;3.60;;
33844;SDS011;20145;43.118;25.694;2023-07-29T05:24:50;6.22;;;3.80;;
33844;SDS011;20145;43.118;25.694;2023-07-29T05:27:15;4.07;;;3.72;;
33844;SDS011;20145;43.118;25.694;2023-07-29T05:29:41;7.10;;;6.40;;
33844;SDS011;20145;43.118;25.694;2023-07-29T05:32:07;4.53;;;4.10;;
33844;SDS011;20145;43.118;25.694;2023-07-29T05:34:32;5.47;;;3.28;;
33844;SDS011;20145;43.118;25.694;2023-07-29T05:36:58;7.28;;;3.40;;
33844;SDS011;20145;43.118;25.694;2023-07-29T05:39:24;4.30;;;3.53;;
33844;SDS011;20145;43.118;25.694;2023-07-29T05:41:49;5.38;;;3.70;;
33844;SDS011;20145;43.118;25.694;2023-07-29T05:44:15;8.55;;;5.32;;
33844;SDS011;20145;43.118;25.694;2023-07-29T05:46:40;13.15;;;7.88;;
33844;SDS011;20145;43.118;25.694;2023-07-29T05:49:06;4.95;;;3.92;;
33844;SDS011;20145;43.118;25.694;2023-07-29T05:51:31;7.88;;;3.75;;
33844;SDS011;20145;43.118;25.694;2023-07-29T05:53:57;3.13;;;2.83;;
33844;SDS011;20145;43.118;25.694;2023-07-29T05:56:22;4.68;;;2.70;;
33844;SDS011;20145;43.118;25.694;2023-07-29T05:58:48;4.22;;;3.38;;
33844;SDS011;20145;43.118;25.694;2023-07-29T06:01:14;3.30;;;3.00;;
33844;SDS011;20145;43.118;25.694;2023-07-29T06:03:39;5.82;;;4.30;;
33844;SDS011;20145;43.118;25.694;2023-07-29T06:06:05;4.25;;;2.92;;
33844;SDS011;20145;43.118;25.694;2023-07-29T06:08:30;4.68;;;3.20;;
33844;SDS011;20145;43.118;25.694;2023-07-29T06:10:59;2.78;;;2.50;;
33844;SDS011;20145;43.118;25.694;2023-07-29T06:13:25;3.22;;;2.75;;
33844;SDS011;20145;43.118;25.694;2023-07-29T06:15:50;3.33;;;2.72;;
33844;SDS011;20145;43.118;25.694;2023-07-29T06:18:16;4.38;;;2.40;;
33844;SDS011;20145;43.118;25.694;2023-07-29T06:20:42;4.35;;;2.80;;
33844;SDS011;20145;43.118;25.694;2023-07-29T06:23:08;4.10;;;3.72;;
33844;SDS011;20145;43.118;25.694;2023-07-29T06:25:33;3.97;;;2.70;;
33844;SDS011;20145;43.118;25.694;2023-07-29T06:27:59;5.07;;;2.30;;
33844;SDS011;20145;43.118;25.694;2023-07-29T06:30:25;6.20;;;2.45;;
33844;SDS011;20145;43.118;25.694;2023-07-29T06:32:50;4.28;;;2.40;;
33844;SDS011;20145;43.118;25.694;2023-07-29T06:35:16;4.53;;;2.40;;
33844;SDS011;20145;43.118;25.694;2023-07-29T06:37:41;4.50;;;2.15;;
33844;SDS011;20145;43.118;25.694;2023-07-29T06:40:07;4.78;;;2.47;;
33844;SDS011;20145;43.118;25.694;2023-07-29T06:42:33;4.93;;;3.20;;
33844;SDS011;20145;43.118;25.694;2023-07-29T06:44:59;3.53;;;2.38;;
33844;SDS011;20145;43.118;25.694;2023-07-29T06:47:24;5.40;;;2.63;;
33844;SDS011;20145;43.118;25.694;2023-07-29T06:49:50;2.70;;;2.50;;
33844;SDS011;20145;43.118;25.694;2023-07-29T06:52:15;5.20;;;2.38;;
33844;SDS011;20145;43.118;25.694;2023-07-29T06:54:41;6.22;;;2.50;;
33844;SDS011;20145;43.118;25.694;2023-07-29T06:57:06;3.97;;;2.47;;
33844;SDS011;20145;43.118;25.694;2023-07-29T06:59:32;2.60;;;2.35;;
33844;SDS011;20145;43.118;25.694;2023-07-29T07:01:57;5.53;;;2.90;;
33844;SDS011;20145;43.118;25.694;2023-07-29T07:04:24;8.55;;;3.05;;
33844;SDS011;20145;43.118;25.694;2023-07-29T07:06:50;3.53;;;2.30;;
33844;SDS011;20145;43.118;25.694;2023-07-29T07:09:16;2.53;;;2.15;;
33844;SDS011;20145;43.118;25.694;2023-07-29T07:11:41;4.30;;;2.38;;
33844;SDS011;20145;43.118;25.694;2023-07-29T07:14:07;4.85;;;2.45;;
33844;SDS011;20145;43.118;25.694;2023-07-29T07:16:32;4.25;;;1.85;;
33844;SDS011;20145;43.118;25.694;2023-07-29T07:18:58;10.23;;;1.98;;
33844;SDS011;20145;43.118;25.694;2023-07-29T07:21:23;7.80;;;2.28;;
33844;SDS011;20145;43.118;25.694;2023-07-29T07:23:49;4.28;;;2.42;;
33844;SDS011;20145;43.118;25.694;2023-07-29T07:26:15;2.72;;;2.50;;
33844;SDS011;20145;43.118;25.694;2023-07-29T07:28:41;3.22;;;2.35;;
33844;SDS011;20145;43.118;25.694;2023-07-29T07:31:06;3.97;;;2.30;;
33844;SDS011;20145;43.118;25.694;2023-07-29T07:33:32;2.30;;;2.10;;
33844;SDS011;20145;43.118;25.694;2023-07-29T07:35:57;5.15;;;2.47;;
33844;SDS011;20145;43.118;25.694;2023-07-29T07:38:23;6.15;;;2.17;;
33844;SDS011;20145;43.118;25.694;2023-07-29T07:40:52;2.47;;;2.28;;
33844;SDS011;20145;43.118;25.694;2023-07-29T07:43:20;2.63;;;2.20;;
33844;SDS011;20145;43.118;25.694;2023-07-29T07:45:45;3.40;;;3.05;;
33844;SDS011;20145;43.118;25.694;2023-07-29T07:48:11;2.38;;;2.15;;
33844;SDS011;20145;43.118;25.694;2023-07-29T07:50:38;4.53;;;3.10;;
33844;SDS011;20145;43.118;25.694;2023-07-29T07:53:04;7.72;;;3.33;;
33844;SDS011;20145;43.118;25.694;2023-07-29T07:55:29;3.42;;;1.90;;
33844;SDS011;20145;43.118;25.694;2023-07-29T07:57:55;3.33;;;2.10;;
33844;SDS011;20145;43.118;25.694;2023-07-29T08:00:20;2.58;;;2.10;;
33844;SDS011;20145;43.118;25.694;2023-07-29T08:02:46;2.28;;;1.80;;
33844;SDS011;20145;43.118;25.694;2023-07-29T08:05:12;2.50;;;1.95;;
33844;SDS011;20145;43.118;25.694;2023-07-29T08:07:37;3.47;;;2.35;;
33844;SDS011;20145;43.118;25.694;2023-07-29T08:10:03;2.65;;;2.08;;
33844;SDS011;20145;43.118;25.694;2023-07-29T08:12:29;6.97;;;1.95;;
33844;SDS011;20145;43.118;25.694;2023-07-29T08:14:54;7.03;;;2.38;;
33844;SDS011;20145;43.118;25.694;2023-07-29T08:17:20;6.88;;;2.70;;
33844;SDS011;20145;43.118;25.694;2023-07-29T08:19:45;4.13;;;2.42;;
33844;SDS011;20145;43.118;25.694;2023-07-29T08:22:14;5.07;;;3.10;;
33844;SDS011;20145;43.118;25.694;2023-07-29T08:24:42;3.65;;;3.30;;
33844;SDS011;20145;43.118;25.694;2023-07-29T08:27:10;6.43;;;2.80;;
33844;SDS011;20145;43.118;25.694;2023-07-29T08:29:36;3.35;;;2.75;;
33844;SDS011;20145;43.118;25.694;2023-07-29T08:32:02;4.93;;;2.78;;
33844;SDS011;20145;43.118;25.694;2023-07-29T08:34:27;4.57;;;2.85;;
33844;SDS011;20145;43.118;25.694;2023-07-29T08:36:53;5.35;;;2.85;;
33844;SDS011;20145;43.118;25.694;2023-07-29T08:39:19;4.22;;;2.70;;
33844;SDS011;20145;43.118;25.694;2023-07-29T08:41:54;3.40;;;2.30;;
33844;SDS011;20145;43.118;25.694;2023-07-29T08:44:23;3.78;;;2.40;;
33844;SDS011;20145;43.118;25.694;2023-07-29T08:46:55;2.35;;;2.10;;
33844;SDS011;20145;43.118;25.694;2023-07-29T08:49:22;3.33;;;2.80;;
33844;SDS011;20145;43.118;25.694;2023-07-29T08:51:49;3.15;;;2.85;;
33844;SDS011;20145;43.118;25.694;2023-07-29T08:54:16;4.20;;;2.75;;
33844;SDS011;20145;43.118;25.694;2023-07-29T08:56:42;2.63;;;2.30;;
33844;SDS011;20145;43.118;25.694;2023-07-29T08:59:09;2.63;;;2.30;;
33844;SDS011;20145;43.118;25.694;2023-07-29T09:01:36;3.88;;;2.80;;
33844;SDS011;20145;43.118;25.694;2023-07-29T09:04:03;9.65;;;2.50;;
33844;SDS011;20145;43.118;25.694;2023-07-29T09:06:29;3.25;;;2.72;;
33844;SDS011;20145;43.118;25.694;2023-07-29T09:08:56;3.22;;;2.92;;
33844;SDS011;20145;43.118;25.694;2023-07-29T09:11:26;3.22;;;2.22;;
33844;SDS011;20145;43.118;25.694;2023-07-29T09:13:52;3.72;;;2.50;;
33844;SDS011;20145;43.118;25.694;2023-07-29T09:16:18;3.60;;;2.63;;
33844;SDS011;20145;43.118;25.694;2023-07-29T09:18:49;3.30;;;2.45;;
33844;SDS011;20145;43.118;25.694;2023-07-29T09:21:17;7.70;;;2.97;;
33844;SDS011;20145;43.118;25.694;2023-07-29T09:23:47;3.63;;;2.55;;
33844;SDS011;20145;43.118;25.694;2023-07-29T09:26:18;5.70;;;2.95;;
33844;SDS011;20145;43.118;25.694;2023-07-29T09:28:54;3.63;;;2.35;;
33844;SDS011;20145;43.118;25.694;2023-07-29T09:31:21;2.30;;;2.10;;
33844;SDS011;20145;43.118;25.694;2023-07-29T09:33:48;2.17;;;1.98;;
33844;SDS011;20145;43.118;25.694;2023-07-29T09:36:14;3.15;;;2.78;;
33844;SDS011;20145;43.118;25.694;2023-07-29T09:38:40;4.18;;;2.40;;
33844;SDS011;20145;43.118;25.694;2023-07-29T09:41:05;6.20;;;2.50;;
33844;SDS011;20145;43.118;25.694;2023-07-29T09:43:32;4.15;;;2.08;;
33844;SDS011;20145;43.118;25.694;2023-07-29T09:46:02;2.35;;;2.15;;
33844;SDS011;20145;43.118;25.694;2023-07-29T09:48:33;3.17;;;2.38;;
33844;SDS011;20145;43.118;25.694;2023-07-29T09:51:00;3.60;;;2.10;;
33844;SDS011;20145;43.118;25.694;2023-07-29T09:53:38;5.97;;;1.83;;
33844;SDS011;20145;43.118;25.694;2023-07-29T09:56:08;4.30;;;1.98;;
33844;SDS011;20145;43.118;25.694;2023-07-29T09:58:33;2.40;;;1.90;;
33844;SDS011;20145;43.118;25.694;2023-07-29T10:01:00;2.42;;;1.80;;
33844;SDS011;20145;43.118;25.694;2023-07-29T10:03:26;3.88;;;2.03;;
33844;SDS011;20145;43.118;25.694;2023-07-29T10:05:54;4.15;;;1.90;;
33844;SDS011;20145;43.118;25.694;2023-07-29T10:08:20;6.35;;;2.53;;
33844;SDS011;20145;43.118;25.694;2023-07-29T10:10:49;4.82;;;2.13;;
33844;SDS011;20145;43.118;25.694;2023-07-29T10:13:15;2.75;;;2.53;;
33844;SDS011;20145;43.118;25.694;2023-07-29T10:15:41;4.63;;;2.10;;
33844;SDS011;20145;43.118;25.694;2023-07-29T10:18:09;3.90;;;2.33;;
33844;SDS011;20145;43.118;25.694;2023-07-29T10:20:34;2.45;;;1.90;;
33844;SDS011;20145;43.118;25.694;2023-07-29T10:23:00;3.42;;;2.03;;
33844;SDS011;20145;43.118;25.694;2023-07-29T10:25:34;3.42;;;2.40;;
33844;SDS011;20145;43.118;25.694;2023-07-29T10:28:07;3.75;;;2.20;;
33844;SDS011;20145;43.118;25.694;2023-07-29T10:30:33;4.50;;;2.20;;
33844;SDS011;20145;43.118;25.694;2023-07-29T10:33:01;4.60;;;2.50;;
33844;SDS011;20145;43.118;25.694;2023-07-29T10:35:28;3.03;;;2.22;;
33844;SDS011;20145;43.118;25.694;2023-07-29T10:37:55;2.97;;;2.40;;
33844;SDS011;20145;43.118;25.694;2023-07-29T10:40:21;4.15;;;2.08;;
33844;SDS011;20145;43.118;25.694;2023-07-29T10:42:59;6.22;;;2.40;;
33844;SDS011;20145;43.118;25.694;2023-07-29T10:53:54;3.33;;;2.38;;
33844;SDS011;20145;43.118;25.694;2023-07-29T10:56:27;2.40;;;2.20;;
33844;SDS011;20145;43.118;25.694;2023-07-29T10:58:56;5.90;;;2.50;;
33844;SDS011;20145;43.118;25.694;2023-07-29T11:01:27;3.45;;;2.30;;
33844;SDS011;20145;43.118;25.694;2023-07-29T11:04:01;4.15;;;2.38;;
33844;SDS011;20145;43.118;25.694;2023-07-29T11:09:42;4.03;;;2.17;;
33844;SDS011;20145;43.118;25.694;2023-07-29T11:15:06;3.97;;;1.98;;
33844;SDS011;20145;43.118;25.694;2023-07-29T11:18:03;2.55;;;1.92;;
33844;SDS011;20145;43.118;25.694;2023-07-29T11:20:29;2.28;;;1.90;;
33844;SDS011;20145;43.118;25.694;2023-07-29T11:22:56;3.83;;;2.30;;
33844;SDS011;20145;43.118;25.694;2023-07-29T11:25:24;1.95;;;1.80;;
33844;SDS011;20145;43.118;25.694;2023-07-29T11:27:52;2.45;;;1.60;;
33844;SDS011;20145;43.118;25.694;2023-07-29T11:30:19;6.25;;;2.13;;
33844;SDS011;20145;43.118;25.694;2023-07-29T11:32:46;2.78;;;1.73;;
33844;SDS011;20145;43.118;25.694;2023-07-29T11:35:13;2.25;;;1.73;;
33844;SDS011;20145;43.118;25.694;2023-07-29T11:37:40;3.83;;;2.00;;
33844;SDS011;20145;43.118;25.694;2023-07-29T11:40:08;2.92;;;2.08;;
33844;SDS011;20145;43.118;25.694;2023-07-29T11:42:38;3.08;;;1.80;;
33844;SDS011;20145;43.118;25.694;2023-07-29T11:45:04;1.63;;;1.52;;
33844;SDS011;20145;43.118;25.694;2023-07-29T11:47:32;1.50;;;1.40;;
33844;SDS011;20145;43.118;25.694;2023-07-29T11:50:02;3.25;;;2.00;;
33844;SDS011;20145;43.118;25.694;2023-07-29T11:52:29;2.20;;;1.95;;
33844;SDS011;20145;43.118;25.694;2023-07-29T11:54:57;3.83;;;1.80;;
33844;SDS011;20145;43.118;25.694;2023-07-29T11:57:25;3.60;;;1.77;;
33844;SDS011;20145;43.118;25.694;2023-07-29T11:59:52;2.13;;;1.38;;
33844;SDS011;20145;43.118;25.694;2023-07-29T12:02:19;6.65;;;1.70;;
33844;SDS011;20145;43.118;25.694;2023-07-29T12:04:46;5.03;;;2.10;;
33844;SDS011;20145;43.118;25.694;2023-07-29T12:07:13;1.83;;;1.65;;
33844;SDS011;20145;43.118;25.694;2023-07-29T12:09:40;1.50;;;1.40;;
33844;SDS011;20145;43.118;25.694;2023-07-29T12:12:07;2.60;;;1.45;;
33844;SDS011;20145;43.118;25.694;2023-07-29T12:14:33;1.50;;;1.23;;
33844;SDS011;20145;43.118;25.694;2023-07-29T12:17:00;3.42;;;1.40;;
33844;SDS011;20145;43.118;25.694;2023-07-29T12:19:36;1.15;;;0.90;;
33844;SDS011;20145;43.118;25.694;2023-07-29T12:22:03;1.70;;;1.38;;
33844;SDS011;20145;43.118;25.694;2023-07-29T12:24:30;1.33;;;1.23;;
33844;SDS011;20145;43.118;25.694;2023-07-29T12:26:57;1.58;;;1.40;;
33844;SDS011;20145;43.118;25.694;2023-07-29T12:29:23;1.92;;;1.73;;
33844;SDS011;20145;43.118;25.694;2023-07-29T12:31:49;1.50;;;1.40;;
33844;SDS011;20145;43.118;25.694;2023-07-29T12:34:26;3.60;;;1.65;;
33844;SDS011;20145;43.118;25.694;2023-07-29T12:36:54;2.90;;;1.60;;
33844;SDS011;20145;43.118;25.694;2023-07-29T12:39:27;2.05;;;1.80;;
33844;SDS011;20145;43.118;25.694;2023-07-29T12:41:55;2.63;;;1.60;;
33844;SDS011;20145;43.118;25.694;2023-07-29T12:44:25;1.98;;;1.40;;
33844;SDS011;20145;43.118;25.694;2023-07-29T12:46:54;2.55;;;1.75;;
33844;SDS011;20145;43.118;25.694;2023-07-29T12:49:20;1.80;;;1.63;;
33844;SDS011;20145;43.118;25.694;2023-07-29T12:51:45;3.17;;;1.70;;
33844;SDS011;20145;43.118;25.694;2023-07-29T12:54:11;3.33;;;1.92;;
33844;SDS011;20145;43.118;25.694;2023-07-29T12:56:37;4.88;;;2.53;;
33844;SDS011;20145;43.118;25.694;2023-07-29T12:59:02;2.72;;;1.65;;
33844;SDS011;20145;43.118;25.694;2023-07-29T13:01:28;3.70;;;3.10;;
33844;SDS011;20145;43.118;25.694;2023-07-29T13:03:55;2.47;;;2.28;;
33844;SDS011;20145;43.118;25.694;2023-07-29T13:06:21;1.98;;;1.77;;
33844;SDS011;20145;43.118;25.694;2023-07-29T13:08:48;3.25;;;1.90;;
33844;SDS011;20145;43.118;25.694;2023-07-29T13:11:14;1.85;;;1.67;;
33844;SDS011;20145;43.118;25.694;2023-07-29T13:13:43;3.55;;;2.50;;
33844;SDS011;20145;43.118;25.694;2023-07-29T13:16:10;5.75;;;2.10;;
33844;SDS011;20145;43.118;25.694;2023-07-29T13:18:36;2.63;;;2.25;;
33844;SDS011;20145;43.118;25.694;2023-07-29T13:21:01;2.35;;;2.10;;
33844;SDS011;20145;43.118;25.694;2023-07-29T13:23:27;1.50;;;1.40;;
33844;SDS011;20145;43.118;25.694;2023-07-29T13:25:55;2.00;;;1.80;;
33844;SDS011;20145;43.118;25.694;2023-07-29T13:28:20;4.28;;;2.00;;
33844;SDS011;20145;43.118;25.694;2023-07-29T13:30:46;1.90;;;1.70;;
33844;SDS011;20145;43.118;25.694;2023-07-29T13:33:12;3.90;;;2.45;;
33844;SDS011;20145;43.118;25.694;2023-07-29T13:35:37;3.20;;;2.35;;
33844;SDS011;20145;43.118;25.694;2023-07-29T13:38:03;1.92;;;1.60;;
33844;SDS011;20145;43.118;25.694;2023-07-29T13:40:29;3.05;;;2.75;;
33844;SDS011;20145;43.118;25.694;2023-07-29T13:42:54;1.77;;;1.63;;
33844;SDS011;20145;43.118;25.694;2023-07-29T13:45:20;2.38;;;1.85;;
33844;SDS011;20145;43.118;25.694;2023-07-29T13:47:46;2.72;;;2.00;;
33844;SDS011;20145;43.118;25.694;2023-07-29T13:50:12;2.13;;;1.92;;
33844;SDS011;20145;43.118;25.694;2023-07-29T13:52:38;2.25;;;2.05;;
33844;SDS011;20145;43.118;25.694;2023-07-29T13:55:04;3.08;;;1.80;;
33844;SDS011;20145;43.118;25.694;2023-07-29T13:57:31;5.03;;;2.95;;
33844;SDS011;20145;43.118;25.694;2023-07-29T13:59:57;2.35;;;2.15;;
33844;SDS011;20145;43.118;25.694;2023-07-29T14:02:22;3.03;;;1.83;;
33844;SDS011;20145;43.118;25.694;2023-07-29T14:04:48;1.92;;;1.70;;
33844;SDS011;20145;43.118;25.694;2023-07-29T14:07:13;3.28;;;2.90;;
33844;SDS011;20145;43.118;25.694;2023-07-29T14:09:39;2.90;;;1.88;;
33844;SDS011;20145;43.118;25.694;2023-07-29T14:12:06;2.47;;;2.10;;
33844;SDS011;20145;43.118;25.694;2023-07-29T14:14:31;2.63;;;1.42;;
33844;SDS011;20145;43.118;25.694;2023-07-29T14:16:57;1.83;;;1.70;;
33844;SDS011;20145;43.118;25.694;2023-07-29T14:19:23;2.80;;;2.22;;
33844;SDS011;20145;43.118;25.694;2023-07-29T14:21:49;4.65;;;3.05;;
33844;SDS011;20145;43.118;25.694;2023-07-29T14:24:14;2.60;;;2.20;;
33844;SDS011;20145;43.118;25.694;2023-07-29T14:26:40;2.70;;;2.50;;
33844;SDS011;20145;43.118;25.694;2023-07-29T14:29:06;6.20;;;1.83;;
33844;SDS011;20145;43.118;25.694;2023-07-29T14:31:32;2.92;;;2.13;;
33844;SDS011;20145;43.118;25.694;2023-07-29T14:33:59;1.92;;;1.83;;
33844;SDS011;20145;43.118;25.694;2023-07-29T14:36:25;2.70;;;2.00;;
33844;SDS011;20145;43.118;25.694;2023-07-29T14:38:51;2.55;;;2.10;;
33844;SDS011;20145;43.118;25.694;2023-07-29T14:41:16;2.60;;;1.75;;
33844;SDS011;20145;43.118;25.694;2023-07-29T14:43:42;2.75;;;1.92;;
33844;SDS011;20145;43.118;25.694;2023-07-29T14:46:08;5.68;;;2.28;;
33844;SDS011;20145;43.118;25.694;2023-07-29T14:48:34;5.78;;;1.80;;
33844;SDS011;20145;43.118;25.694;2023-07-29T14:50:59;8.25;;;2.35;;
33844;SDS011;20145;43.118;25.694;2023-07-29T14:53:25;3.78;;;2.08;;